Time;durP1;ratioP1;P1;durP2;ratioP2;P2;SDS_P1;SDS_P2;PMS_P1;PMS_P2;Temp;Humidity;BMP_temperature;BMP_pressure;BME280_temperature;BME280_humidity;BME280_pressure;Samples;Min_cycle;Max_cycle;Signal;HPM_P1;HPM_P2
2021/11/12 00:02:44;;;;;;;14.17;7.30;;;9.10;67.70;;;;;;5056127;28;20082;-82
2021/11/12 00:13:20;;;;;;;10.07;7.13;;;8.80;67.90;;;;;;5059269;28;20056;-82
2021/11/12 00:15:52;;;;;;;12.80;7.93;;;8.80;68.00;;;;;;5052612;28;20040;-82
2021/11/12 00:18:22;;;;;;;16.13;8.57;;;8.80;68.30;;;;;;5049754;28;20054;-81
2021/11/12 00:20:48;;;;;;;13.73;8.17;;;8.80;68.40;;;;;;5054440;28;20025;-81
2021/11/12 00:23:15;;;;;;;19.57;9.47;;;8.70;68.60;;;;;;5016776;28;20026;-81
2021/11/12 00:25:44;;;;;;;18.03;9.80;;;8.70;68.70;;;;;;5049432;28;20032;-82
2021/11/12 00:28:14;;;;;;;16.20;10.13;;;8.70;68.70;;;;;;5048797;28;20044;-82
2021/11/12 00:30:59;;;;;;;20.30;11.50;;;8.80;68.70;;;;;;5053037;28;20021;-82
2021/11/12 00:38:55;;;;;;;20.60;11.93;;;8.70;68.80;;;;;;5055699;28;20025;-82
2021/11/12 00:47:09;;;;;;;16.47;12.03;;;8.70;68.70;;;;;;5072221;28;20036;-81
2021/11/12 00:49:35;;;;;;;17.97;10.17;;;8.70;68.90;;;;;;5068448;28;20043;-81
2021/11/12 00:52:08;;;;;;;14.93;10.30;;;8.70;68.90;;;;;;5050564;28;20716;-82
2021/11/12 00:54:34;;;;;;;17.80;8.90;;;8.70;68.80;;;;;;5052099;28;20097;-81
2021/11/12 00:57:00;;;;;;;20.50;8.33;;;8.70;68.80;;;;;;5064733;28;20111;-82
2021/11/12 00:59:25;;;;;;;12.87;8.07;;;8.70;68.70;;;;;;5035402;28;20029;-82
2021/11/12 01:01:52;;;;;;;13.43;7.40;;;8.70;68.70;;;;;;5051352;28;20043;-82
2021/11/12 01:04:20;;;;;;;13.20;6.60;;;8.60;68.60;;;;;;5040922;28;20591;-81
2021/11/12 01:06:46;;;;;;;16.27;7.53;;;8.60;68.90;;;;;;5041079;28;20518;-82
2021/11/12 01:09:16;;;;;;;11.83;8.13;;;8.50;69.10;;;;;;5054363;28;20036;-82
2021/11/12 01:11:44;;;;;;;10.93;6.47;;;8.50;69.30;;;;;;5055686;28;20098;-81
2021/11/12 01:14:12;;;;;;;12.43;7.10;;;8.50;69.40;;;;;;5048634;28;20025;-81
2021/11/12 01:16:38;;;;;;;15.53;7.00;;;8.50;69.30;;;;;;5043090;28;20030;-82
2021/11/12 01:19:06;;;;;;;9.33;6.10;;;8.50;69.30;;;;;;5068915;28;20463;-81
2021/11/12 01:21:35;;;;;;;12.77;6.53;;;8.50;69.10;;;;;;5056729;28;20390;-81
2021/11/12 01:24:01;;;;;;;12.57;6.07;;;8.60;69.30;;;;;;5045635;28;20112;-82
2021/11/12 01:26:28;;;;;;;14.50;6.63;;;8.60;69.10;;;;;;5064360;28;20475;-82
2021/11/12 01:28:55;;;;;;;9.00;6.50;;;8.60;69.20;;;;;;5043002;28;20052;-82
2021/11/12 01:31:27;;;;;;;10.73;6.13;;;8.60;69.10;;;;;;5063576;28;20051;-82
2021/11/12 01:33:53;;;;;;;14.47;6.70;;;8.60;68.90;;;;;;5052321;28;20028;-82
2021/11/12 01:36:31;;;;;;;12.87;7.37;;;8.50;68.90;;;;;;5053965;28;20403;-82
2021/11/12 01:39:01;;;;;;;10.53;6.53;;;8.50;69.50;;;;;;5033736;28;20060;-81
2021/11/12 01:41:28;;;;;;;15.73;6.53;;;8.50;68.90;;;;;;5031048;28;20535;-81
2021/11/12 01:43:56;;;;;;;11.63;6.83;;;8.40;68.90;;;;;;5034025;28;20373;-82
2021/11/12 01:46:32;;;;;;;9.40;5.77;;;8.40;69.10;;;;;;5056673;28;20028;-82
2021/11/12 01:49:20;;;;;;;12.73;7.43;;;8.40;69.00;;;;;;5030530;28;20388;-82
2021/11/12 01:59:20;;;;;;;23.00;13.47;;;8.40;69.30;;;;;;5043220;28;20029;-82
2021/11/12 02:01:46;;;;;;;20.63;10.57;;;8.40;69.80;;;;;;5037805;28;20348;-81
2021/11/12 02:04:14;;;;;;;29.53;15.43;;;8.40;70.00;;;;;;5038023;28;20183;-82
2021/11/12 02:06:42;;;;;;;19.50;10.30;;;8.50;70.20;;;;;;5061281;28;20033;-82
2021/11/12 02:09:19;;;;;;;28.43;13.07;;;8.50;70.00;;;;;;5043577;28;20040;-81
2021/11/12 02:11:52;;;;;;;25.17;10.80;;;8.50;70.00;;;;;;5046995;28;20048;-81
2021/11/12 02:14:20;;;;;;;25.25;10.43;;;8.50;70.10;;;;;;5051674;28;20403;-82
2021/11/12 02:16:57;;;;;;;30.13;11.53;;;8.50;70.30;;;;;;5049462;28;20029;-81
2021/11/12 02:19:23;;;;;;;39.97;14.00;;;8.50;70.30;;;;;;5033381;28;20040;-81
2021/11/12 02:22:02;;;;;;;35.07;12.67;;;8.50;70.50;;;;;;5054417;28;20029;-81
2021/11/12 02:24:29;;;;;;;33.00;13.27;;;8.40;70.70;;;;;;5046617;28;20103;-81
2021/11/12 02:26:57;;;;;;;46.60;14.07;;;8.50;70.90;;;;;;5040801;28;20024;-81
2021/11/12 02:29:25;;;;;;;49.37;13.57;;;8.50;70.90;;;;;;5046818;28;20052;-81
2021/11/12 02:31:51;;;;;;;45.17;11.73;;;8.50;70.80;;;;;;5040103;28;20484;-81
2021/11/12 02:34:17;;;;;;;53.73;13.57;;;8.50;70.60;;;;;;5057294;28;20100;-82
2021/11/12 02:36:43;;;;;;;50.30;17.27;;;8.40;70.50;;;;;;5057245;28;20392;-81
2021/11/12 02:39:13;;;;;;;61.83;14.83;;;8.40;70.80;;;;;;5039039;28;20506;-81
2021/11/12 02:41:40;;;;;;;67.37;17.13;;;8.40;70.90;;;;;;5047275;28;20017;-81
2021/11/12 02:44:07;;;;;;;60.63;15.57;;;8.40;71.00;;;;;;5039579;28;20387;-81
2021/11/12 02:46:33;;;;;;;47.77;13.03;;;8.40;71.10;;;;;;5069486;28;20152;-82
2021/11/12 02:49:00;;;;;;;61.57;13.90;;;8.40;71.20;;;;;;5030933;28;20025;-81
2021/11/12 02:51:31;;;;;;;54.97;15.30;;;8.30;71.30;;;;;;5049878;28;20032;-81
2021/11/12 02:54:00;;;;;;;56.07;14.40;;;8.30;71.30;;;;;;5069277;28;20218;-82
2021/11/12 02:56:32;;;;;;;27.50;13.47;;;8.20;71.30;;;;;;5048924;28;20086;-81
2021/11/12 02:59:09;;;;;;;32.53;14.70;;;8.20;71.50;;;;;;5061259;28;20017;-82
2021/11/12 03:01:43;;;;;;;30.33;15.63;;;8.20;71.50;;;;;;5043037;28;20082;-82
2021/11/12 03:04:09;;;;;;;44.90;16.37;;;8.20;71.60;;;;;;5048748;28;20046;-82
2021/11/12 03:06:36;;;;;;;40.90;15.77;;;8.20;71.60;;;;;;5052951;28;20029;-82
2021/11/12 03:09:06;;;;;;;40.43;16.60;;;8.20;71.60;;;;;;5050626;28;20029;-81
2021/11/12 03:11:32;;;;;;;37.40;15.70;;;8.10;71.50;;;;;;5052313;28;20403;-81
2021/11/12 03:13:59;;;;;;;39.07;16.60;;;8.10;71.90;;;;;;5043013;28;20491;-81
2021/11/12 03:16:25;;;;;;;42.23;19.13;;;8.10;72.40;;;;;;5070229;28;20032;-81
2021/11/12 03:18:52;;;;;;;43.23;19.87;;;8.10;71.80;;;;;;5037734;28;20029;-81
2021/11/12 03:21:21;;;;;;;64.47;20.63;;;8.10;71.80;;;;;;5041876;28;20043;-81
2021/11/12 03:23:52;;;;;;;48.30;18.20;;;8.00;71.90;;;;;;5072857;28;20050;-82
2021/11/12 03:29:03;;;;;;;38.60;17.07;;;8.00;72.00;;;;;;5053007;28;20044;-81
2021/11/12 04:17:33;;;;;;;11.03;5.70;;;7.90;71.20;;;;;;5033383;28;20055;-81
2021/11/12 05:09:40;;;;;;;13.30;6.93;;;7.70;71.40;;;;;;5072482;28;20043;-81
2021/11/12 05:44:19;;;;;;;14.73;9.60;;;7.40;70.90;;;;;;5067811;28;20074;-81
2021/11/12 05:49:48;;;;;;;16.43;11.47;;;7.50;71.20;;;;;;5042798;28;20094;-81
2021/11/12 05:55:06;;;;;;;22.17;11.27;;;7.40;71.50;;;;;;5066704;28;20507;-82
2021/11/12 05:57:34;;;;;;;12.80;9.60;;;7.40;71.60;;;;;;5038945;28;20029;-82
2021/11/12 06:00:00;;;;;;;25.13;9.43;;;7.50;71.70;;;;;;5033366;28;20164;-81
2021/11/12 06:02:25;;;;;;;16.60;9.43;;;7.50;71.70;;;;;;5036464;28;20021;-81
2021/11/12 06:04:51;;;;;;;21.47;9.63;;;7.40;71.50;;;;;;5065075;28;20698;-82
2021/11/12 06:07:17;;;;;;;16.50;9.47;;;7.50;71.60;;;;;;5065844;28;20024;-81
2021/11/12 06:09:43;;;;;;;18.00;9.37;;;7.40;71.40;;;;;;5065842;28;20031;-82
2021/11/12 06:12:12;;;;;;;16.83;8.90;;;7.40;71.30;;;;;;5066560;28;20404;-81
2021/11/12 06:14:49;;;;;;;20.30;10.33;;;7.40;71.60;;;;;;5063794;28;20029;-81
2021/11/12 06:17:15;;;;;;;20.03;12.20;;;7.50;71.60;;;;;;5045974;28;20052;-81
2021/11/12 06:19:40;;;;;;;21.03;12.03;;;7.50;71.40;;;;;;5064570;28;20053;-81
2021/11/12 06:22:06;;;;;;;17.80;12.53;;;7.50;71.60;;;;;;5037370;28;20113;-81
2021/11/12 06:24:32;;;;;;;19.50;13.40;;;7.40;71.60;;;;;;5060309;28;20032;-82
2021/11/12 06:26:58;;;;;;;23.53;13.83;;;7.40;71.60;;;;;;5040147;28;20407;-81
2021/11/12 06:29:24;;;;;;;26.67;16.70;;;7.40;71.40;;;;;;5028220;28;20438;-81
2021/11/12 06:31:49;;;;;;;30.47;20.23;;;7.40;71.60;;;;;;5022530;28;20033;-81
2021/11/12 06:34:15;;;;;;;42.43;28.10;;;7.40;71.50;;;;;;5057872;28;20096;-81
2021/11/12 06:36:43;;;;;;;29.47;17.43;;;7.40;71.60;;;;;;5036328;28;20046;-81
2021/11/12 06:39:10;;;;;;;22.30;13.97;;;7.40;71.40;;;;;;5038118;28;20079;-81
2021/11/12 06:49:34;;;;;;;31.60;15.47;;;7.50;72.00;;;;;;5033673;28;20048;-82
2021/11/12 06:52:00;;;;;;;48.93;19.90;;;7.50;71.90;;;;;;5028857;28;20029;-81
2021/11/12 06:54:29;;;;;;;35.27;15.67;;;7.50;72.00;;;;;;5030288;28;20443;-81
2021/11/12 06:56:55;;;;;;;33.07;16.57;;;7.50;72.00;;;;;;5017781;28;20029;-81
2021/11/12 06:59:21;;;;;;;48.77;19.77;;;7.50;72.00;;;;;;5039038;28;20726;-81
2021/11/12 07:01:47;;;;;;;57.03;22.57;;;7.60;72.10;;;;;;5039220;28;20108;-82
2021/11/12 07:04:14;;;;;;;60.13;25.27;;;7.60;72.00;;;;;;5039961;28;20104;-82
2021/11/12 07:06:40;;;;;;;109.90;44.97;;;7.50;71.90;;;;;;5041987;28;20033;-82
2021/11/12 07:09:07;;;;;;;105.40;45.43;;;7.50;72.10;;;;;;5038202;28;20468;-82
2021/11/12 07:11:35;;;;;;;60.73;29.30;;;7.50;72.30;;;;;;5032965;28;20095;-81
2021/11/12 07:14:04;;;;;;;62.83;22.53;;;7.50;72.30;;;;;;5020121;28;20049;-81
2021/11/12 07:16:30;;;;;;;51.00;19.20;;;7.40;72.50;;;;;;5021660;28;20638;-82
2021/11/12 07:18:56;;;;;;;46.23;17.00;;;7.50;72.70;;;;;;5026088;28;20017;-82
2021/11/12 07:21:26;;;;;;;80.33;16.73;;;7.50;72.70;;;;;;5015795;28;20037;-81
2021/11/12 07:23:54;;;;;;;27.37;13.80;;;7.40;72.90;;;;;;5039640;28;20358;-81
2021/11/12 07:26:20;;;;;;;32.70;14.90;;;7.40;73.20;;;;;;5027499;28;20499;-81
2021/11/12 07:28:48;;;;;;;24.67;14.13;;;7.40;73.20;;;;;;5052776;28;20045;-81
2021/11/12 07:31:16;;;;;;;28.83;16.13;;;7.50;73.10;;;;;;5049697;28;20029;-81
2021/11/12 07:33:42;;;;;;;28.50;15.57;;;7.50;72.90;;;;;;5029656;28;20100;-81
2021/11/12 07:36:20;;;;;;;23.53;14.67;;;7.50;73.00;;;;;;5046168;28;20044;-82
2021/11/12 07:38:52;;;;;;;27.13;15.87;;;7.50;73.20;;;;;;5018156;28;20049;-81
2021/11/12 07:41:42;;;;;;;25.98;16.02;;;7.50;73.00;;;;;;5045175;28;20025;-81
2021/11/12 07:49:00;;;;;;;28.53;16.97;;;7.60;72.80;;;;;;5048651;28;20021;-81
2021/11/12 07:51:27;;;;;;;23.20;14.00;;;7.50;72.60;;;;;;5029305;28;20074;-81
2021/11/12 07:53:54;;;;;;;18.87;12.73;;;7.50;72.60;;;;;;5052493;28;20025;-82
2021/11/12 07:56:20;;;;;;;18.60;10.87;;;7.60;72.80;;;;;;5053609;28;20102;-81
2021/11/12 07:58:46;;;;;;;19.37;12.53;;;7.60;72.70;;;;;;5043677;28;20029;-81
2021/11/12 08:01:11;;;;;;;22.17;12.33;;;7.70;72.80;;;;;;5059602;28;20036;-81
2021/11/12 08:03:37;;;;;;;25.80;11.07;;;7.80;72.90;;;;;;5062782;28;20020;-82
2021/11/12 08:06:06;;;;;;;19.70;11.67;;;7.90;73.10;;;;;;5044593;28;20022;-81
2021/11/12 08:08:35;;;;;;;16.63;12.00;;;8.00;73.00;;;;;;5039599;28;20139;-81
2021/11/12 08:11:11;;;;;;;17.37;11.13;;;8.10;73.10;;;;;;5041266;28;20029;-82
2021/11/12 08:18:59;;;;;;;21.57;13.23;;;8.20;73.30;;;;;;5051055;28;20013;-82
2021/11/12 08:21:37;;;;;;;18.40;12.70;;;8.20;73.40;;;;;;5038892;28;20793;-81
2021/11/12 08:29:47;;;;;;;16.80;10.98;;;8.50;73.50;;;;;;5046175;28;20044;-82
2021/11/12 08:35:09;;;;;;;16.33;10.87;;;8.60;73.90;;;;;;5048671;28;20036;-81
2021/11/12 08:40:35;;;;;;;18.77;11.87;;;8.90;74.20;;;;;;5054169;28;20039;-82
2021/11/12 08:45:36;;;;;;;20.50;10.53;;;9.50;73.80;;;;;;5059207;28;20028;-81
2021/11/12 08:48:06;;;;;;;16.33;10.30;;;9.60;73.20;;;;;;5063942;28;20123;-81
2021/11/12 08:50:33;;;;;;;16.87;11.53;;;9.60;72.90;;;;;;5035150;28;20563;-81
2021/11/12 08:53:05;;;;;;;19.77;11.50;;;9.60;72.70;;;;;;5058697;28;20016;-82
2021/11/12 08:55:33;;;;;;;14.73;10.93;;;9.60;72.70;;;;;;5056469;28;20097;-82
2021/11/12 08:57:59;;;;;;;16.63;10.60;;;9.60;72.60;;;;;;5051127;28;20025;-81
2021/11/12 09:00:26;;;;;;;18.83;10.73;;;9.50;72.60;;;;;;5037592;28;20021;-82
2021/11/12 09:02:52;;;;;;;14.47;10.80;;;9.50;72.90;;;;;;5058181;28;20424;-82
2021/11/12 09:05:20;;;;;;;14.47;9.37;;;9.50;73.00;;;;;;5054622;28;20020;-82
2021/11/12 09:07:50;;;;;;;13.63;8.47;;;9.70;73.00;;;;;;5037790;28;20024;-81
2021/11/12 09:10:18;;;;;;;13.57;7.93;;;9.80;72.60;;;;;;5050838;28;20400;-82
2021/11/12 09:12:48;;;;;;;13.77;9.30;;;10.10;72.40;;;;;;5072836;28;20024;-82
2021/11/12 09:18:07;;;;;;;12.30;8.63;;;10.60;71.20;;;;;;5040612;28;20511;-82
2021/11/12 09:20:33;;;;;;;12.83;8.37;;;10.80;70.80;;;;;;5029478;28;20029;-82
2021/11/12 09:23:00;;;;;;;12.23;8.47;;;11.00;70.30;;;;;;5028966;28;20067;-82
2021/11/12 09:25:26;;;;;;;11.80;8.60;;;11.10;70.00;;;;;;5038777;28;20025;-82
2021/11/12 09:27:53;;;;;;;14.47;8.23;;;11.30;69.80;;;;;;5038558;28;20029;-82
2021/11/12 09:30:22;;;;;;;12.73;8.63;;;11.40;69.60;;;;;;5042029;28;20016;-82
2021/11/12 09:32:49;;;;;;;12.13;7.90;;;11.50;69.10;;;;;;5042245;28;20031;-82
2021/11/12 09:35:15;;;;;;;13.73;10.20;;;11.60;68.80;;;;;;5056565;28;20086;-81
2021/11/12 09:37:41;;;;;;;13.27;9.60;;;11.80;68.50;;;;;;5061566;28;20751;-82
2021/11/12 09:40:08;;;;;;;20.50;10.83;;;11.90;68.30;;;;;;5042675;28;20216;-82
2021/11/12 09:42:35;;;;;;;13.30;9.17;;;12.00;68.20;;;;;;5037800;28;20025;-82
2021/11/12 09:45:04;;;;;;;12.80;7.13;;;12.10;67.90;;;;;;5049608;28;20012;-82
2021/11/12 09:47:30;;;;;;;11.10;7.77;;;12.30;67.50;;;;;;5038296;28;20028;-82
2021/11/12 09:50:07;;;;;;;14.13;8.00;;;12.40;67.10;;;;;;5048917;28;20029;-82
2021/11/12 09:52:33;;;;;;;13.27;7.67;;;12.60;66.40;;;;;;5037908;28;20036;-82
2021/11/12 09:55:00;;;;;;;13.53;7.70;;;12.70;65.70;;;;;;5050275;28;20082;-82
2021/11/12 09:57:26;;;;;;;9.97;7.40;;;12.90;64.90;;;;;;5028590;28;20488;-82
2021/11/12 09:59:59;;;;;;;14.23;7.50;;;13.10;64.20;;;;;;5036364;28;20146;-82
2021/11/12 10:02:30;;;;;;;12.37;7.90;;;13.20;63.80;;;;;;5036844;28;20056;-82
2021/11/12 10:04:56;;;;;;;9.67;7.23;;;13.30;63.80;;;;;;5034872;28;20037;-82
2021/11/12 10:07:23;;;;;;;12.77;7.40;;;13.50;63.60;;;;;;5066545;28;20538;-82
2021/11/12 10:10:07;;;;;;;9.45;6.97;;;13.70;63.10;;;;;;5041617;28;20032;-81
2021/11/12 10:12:44;;;;;;;12.30;7.03;;;14.00;62.00;;;;;;5038096;28;20022;-82
2021/11/12 10:15:20;;;;;;;11.82;7.57;;;14.10;62.10;;;;;;5056571;28;20468;-82
2021/11/12 10:17:48;;;;;;;11.73;8.15;;;14.30;61.60;;;;;;5033158;28;20032;-81
2021/11/12 10:20:20;;;;;;;11.80;7.35;;;14.50;61.10;;;;;;5042462;28;20065;-81
2021/11/12 10:22:47;;;;;;;14.15;7.10;;;14.50;60.70;;;;;;5028406;28;20159;-82
2021/11/12 10:25:15;;;;;;;8.80;6.88;;;14.60;60.80;;;;;;5055516;28;20021;-81
2021/11/12 10:27:49;;;;;;;12.07;7.25;;;14.70;60.60;;;;;;5031857;28;20439;-82
2021/11/12 10:30:21;;;;;;;12.40;6.95;;;14.90;60.00;;;;;;5023178;28;20119;-82
2021/11/12 10:32:47;;;;;;;10.60;6.50;;;14.90;59.40;;;;;;5037814;28;20346;-82
2021/11/12 10:35:29;;;;;;;9.20;6.00;;;15.00;59.20;;;;;;5042861;28;20637;-82
2021/11/12 10:38:06;;;;;;;10.07;5.85;;;15.10;58.30;;;;;;5035014;28;20030;-82
2021/11/12 10:40:32;;;;;;;8.73;5.50;;;15.20;57.90;;;;;;5048355;28;20027;-82
2021/11/12 10:42:59;;;;;;;8.30;5.80;;;15.40;58.00;;;;;;5026107;28;20025;-82
2021/11/12 10:45:31;;;;;;;11.90;5.78;;;15.50;57.20;;;;;;5042825;28;20017;-82
2021/11/12 10:48:00;;;;;;;14.95;5.80;;;15.40;57.10;;;;;;5023459;28;20396;-82
2021/11/12 10:50:29;;;;;;;11.18;5.70;;;15.60;57.30;;;;;;5067703;28;20143;-82
2021/11/12 10:53:16;;;;;;;8.90;5.70;;;15.70;56.70;;;;;;5033948;28;20048;-83
2021/11/12 10:55:54;;;;;;;9.52;5.72;;;15.70;56.00;;;;;;5061188;28;20035;-82
2021/11/12 10:58:20;;;;;;;8.13;6.03;;;15.80;56.30;;;;;;5073638;28;20025;-82
2021/11/12 11:00:50;;;;;;;11.48;5.80;;;15.90;56.20;;;;;;5036277;28;20113;-82
2021/11/12 11:03:20;;;;;;;8.48;4.90;;;16.00;55.70;;;;;;5049697;28;20013;-82
2021/11/12 11:05:47;;;;;;;7.68;5.03;;;16.20;55.20;;;;;;5053452;28;20067;-82
2021/11/12 11:08:28;;;;;;;8.20;5.05;;;16.30;54.90;;;;;;5026305;28;20473;-83
2021/11/12 11:11:02;;;;;;;9.50;5.57;;;16.40;54.00;;;;;;5017210;28;20441;-82
2021/11/12 11:13:37;;;;;;;9.43;6.28;;;16.60;53.60;;;;;;5040641;28;20128;-83
2021/11/12 11:16:06;;;;;;;9.68;5.82;;;16.70;53.00;;;;;;5050157;28;20028;-82
2021/11/12 11:18:37;;;;;;;7.53;5.95;;;16.70;52.60;;;;;;5034372;28;20033;-82
2021/11/12 11:21:09;;;;;;;9.10;5.43;;;16.80;52.60;;;;;;5054344;28;20051;-82
2021/11/12 11:24:02;;;;;;;15.15;6.05;;;16.80;52.70;;;;;;5048527;28;20048;-82
2021/11/12 11:26:41;;;;;;;9.88;5.40;;;16.90;52.50;;;;;;5035217;28;20151;-82
2021/11/12 11:29:10;;;;;;;9.07;5.90;;;16.90;52.30;;;;;;5038402;28;20488;-83
2021/11/12 11:31:37;;;;;;;9.07;5.22;;;17.00;52.50;;;;;;5045166;28;20047;-83
2021/11/12 11:34:04;;;;;;;10.13;5.88;;;17.20;52.20;;;;;;5020009;28;20420;-81
2021/11/12 11:36:33;;;;;;;10.80;5.15;;;17.10;51.50;;;;;;5029318;28;20488;-84
2021/11/12 11:39:01;;;;;;;10.98;5.38;;;17.20;51.10;;;;;;5045457;28;20515;-84
2021/11/12 11:41:27;;;;;;;10.95;5.72;;;17.20;50.80;;;;;;5068623;28;20025;-84
2021/11/12 11:43:55;;;;;;;11.02;5.30;;;17.20;50.60;;;;;;5054140;28;20029;-84
2021/11/12 11:46:34;;;;;;;9.75;5.32;;;17.30;50.50;;;;;;5051326;28;20037;-83
2021/11/12 11:49:02;;;;;;;9.02;6.05;;;17.40;50.10;;;;;;5046576;28;20569;-84
2021/11/12 11:51:34;;;;;;;7.38;5.40;;;17.50;50.30;;;;;;5019794;28;20469;-83
2021/11/12 11:54:12;;;;;;;7.72;6.03;;;17.40;50.10;;;;;;5049862;28;20663;-82
2021/11/12 11:56:42;;;;;;;12.10;5.75;;;17.50;49.90;;;;;;5032777;28;20060;-83
2021/11/12 11:59:10;;;;;;;12.52;5.95;;;17.40;50.00;;;;;;5047692;28;20021;-83
2021/11/12 12:01:38;;;;;;;9.10;5.47;;;17.40;50.20;;;;;;5040250;28;20025;-83
2021/11/12 12:04:23;;;;;;;8.60;5.60;;;17.30;50.20;;;;;;5041102;28;20029;-83
2021/11/12 12:07:01;;;;;;;9.63;5.35;;;17.30;50.00;;;;;;5059353;28;20028;-83
2021/11/12 12:09:52;;;;;;;9.73;5.28;;;17.30;50.00;;;;;;5045477;28;20029;-82
2021/11/12 12:12:30;;;;;;;8.75;5.72;;;17.30;50.40;;;;;;5047767;28;20756;-83
2021/11/12 12:15:18;;;;;;;10.38;5.68;;;17.20;50.70;;;;;;5042672;28;20099;-83
2021/11/12 12:17:47;;;;;;;7.45;4.80;;;17.20;50.90;;;;;;5033577;28;20033;-83
2021/11/12 13:22:48;;;;;;;16.88;6.30;;;17.10;50.90;;;;;;5043526;28;20040;-83
2021/11/12 13:25:40;;;;;;;9.10;5.30;;;17.10;50.80;;;;;;5043822;28;20028;-83
2021/11/12 13:28:26;;;;;;;8.55;5.38;;;17.00;50.80;;;;;;5055369;28;20052;-83
2021/11/12 13:31:16;;;;;;;9.60;5.38;;;17.10;51.00;;;;;;5047764;28;20495;-83
2021/11/12 13:33:50;;;;;;;8.80;5.28;;;17.00;50.80;;;;;;5047260;28;20101;-84
2021/11/12 13:36:24;;;;;;;12.00;5.97;;;17.00;50.90;;;;;;5024317;28;20040;-84
2021/11/12 13:38:52;;;;;;;9.48;5.10;;;17.10;50.90;;;;;;5040865;28;20024;-83
2021/11/12 13:41:22;;;;;;;9.90;4.95;;;17.00;50.80;;;;;;5045208;28;20120;-83
2021/11/12 13:43:49;;;;;;;7.63;5.07;;;16.90;50.90;;;;;;5031397;28;20053;-83
2021/11/12 13:46:16;;;;;;;12.73;5.88;;;16.90;51.00;;;;;;5033701;28;20438;-83
2021/11/12 13:48:48;;;;;;;11.60;5.55;;;16.80;51.10;;;;;;5033837;28;20083;-83
2021/11/12 13:51:17;;;;;;;12.82;5.78;;;16.80;51.10;;;;;;5066141;28;20079;-83
2021/11/12 13:53:48;;;;;;;10.38;6.20;;;16.80;51.20;;;;;;5050383;28;20033;-83
2021/11/12 13:56:14;;;;;;;7.85;5.85;;;16.80;51.30;;;;;;5037662;28;20087;-83
2021/11/12 13:58:40;;;;;;;13.88;5.90;;;16.80;51.40;;;;;;5018407;28;20067;-83
2021/11/12 14:01:21;;;;;;;10.90;5.40;;;16.70;51.60;;;;;;5034530;28;20032;-84
2021/11/12 14:03:48;;;;;;;9.05;5.43;;;16.70;51.80;;;;;;5034439;28;20021;-83
2021/11/12 14:06:15;;;;;;;9.18;5.43;;;16.60;51.90;;;;;;5026994;28;20480;-83
2021/11/12 14:08:49;;;;;;;8.73;5.60;;;16.50;52.10;;;;;;5027173;28;20037;-83
2021/11/12 14:11:22;;;;;;;15.63;6.97;;;16.50;52.50;;;;;;5028500;28;20025;-82
2021/11/12 14:13:50;;;;;;;10.27;6.00;;;16.40;52.70;;;;;;5032871;28;20040;-83
2021/11/12 14:16:26;;;;;;;12.45;7.53;;;16.30;53.00;;;;;;5017640;28;20033;-83
2021/11/12 14:37:50;;;;;;;18.92;9.57;;;15.60;54.90;;;;;;5056751;28;20021;-83
2021/11/12 14:40:32;;;;;;;25.42;10.50;;;15.50;55.20;;;;;;5050027;28;20082;-83
2021/11/12 14:45:37;;;;;;;18.83;10.35;;;15.50;55.60;;;;;;5053155;28;20021;-83
2021/11/12 14:48:39;;;;;;;20.98;11.15;;;15.40;55.70;;;;;;5061992;28;20547;-82
2021/11/12 14:51:10;;;;;;;19.43;9.93;;;15.30;56.00;;;;;;5051304;28;20041;-83
2021/11/12 14:53:51;;;;;;;22.90;11.20;;;15.20;56.20;;;;;;5067658;28;20025;-83
2021/11/12 14:56:24;;;;;;;22.43;12.27;;;15.10;56.30;;;;;;5060385;28;20031;-83
2021/11/12 14:58:59;;;;;;;19.33;11.32;;;14.90;56.50;;;;;;5052706;28;20025;-83
2021/11/12 15:01:27;;;;;;;21.30;11.63;;;14.80;57.30;;;;;;5042324;28;20029;-83
2021/11/12 15:03:54;;;;;;;23.00;12.20;;;14.70;57.00;;;;;;5044085;28;20472;-83
2021/11/12 15:06:22;;;;;;;22.30;11.63;;;14.60;57.10;;;;;;5051332;28;20039;-82
2021/11/12 15:08:55;;;;;;;22.90;11.80;;;14.60;57.30;;;;;;5059288;28;20033;-82
2021/11/12 15:11:24;;;;;;;26.35;12.60;;;14.50;57.30;;;;;;5038385;28;20377;-83
2021/11/12 15:13:52;;;;;;;26.83;13.33;;;14.40;57.40;;;;;;5047338;28;20036;-82
2021/11/12 15:16:26;;;;;;;25.00;13.27;;;14.30;57.50;;;;;;5033287;28;20033;-81
2021/11/12 15:18:57;;;;;;;20.40;12.47;;;14.20;57.70;;;;;;5052202;28;20793;-82
2021/11/12 15:29:28;;;;;;;22.30;12.57;;;13.90;58.00;;;;;;5051441;28;20100;-81
2021/11/12 15:34:23;;;;;;;20.57;11.53;;;13.70;58.10;;;;;;5060656;28;20036;-82
2021/11/12 15:37:38;;;;;;;15.67;10.53;;;13.60;58.30;;;;;;5056907;28;20624;-82
2021/11/12 15:39:51;;;;;;;20.03;12.67;;;13.50;58.40;;;;;;5035944;28;20033;-82
2021/11/12 15:44:55;;;;;;;21.45;12.38;;;13.40;58.60;;;;;;5047874;28;20108;-82
2021/11/12 15:47:23;;;;;;;20.83;12.40;;;13.30;58.80;;;;;;5039017;28;20488;-81
2021/11/12 15:49:54;;;;;;;21.23;12.40;;;13.20;58.80;;;;;;5050965;28;20048;-81
2021/11/12 15:52:28;;;;;;;24.47;12.77;;;13.20;58.80;;;;;;5071039;28;20048;-81
2021/11/12 15:55:13;;;;;;;24.27;14.07;;;13.00;59.00;;;;;;5040096;28;20036;-81
2021/11/12 16:05:43;;;;;;;27.47;13.87;;;12.70;59.60;;;;;;5056450;28;20012;-82
2021/11/12 16:26:01;;;;;;;27.83;14.77;;;12.10;60.10;;;;;;5056402;28;20368;-82
2021/11/12 16:28:33;;;;;;;20.93;13.97;;;12.00;60.30;;;;;;5046950;28;20156;-81
2021/11/12 16:31:02;;;;;;;19.57;13.87;;;11.90;60.40;;;;;;5033573;28;20025;-81
2021/11/12 16:33:30;;;;;;;23.80;14.77;;;11.90;60.60;;;;;;5045577;28;20028;-81
2021/11/12 16:36:02;;;;;;;29.70;14.60;;;11.80;60.60;;;;;;5021063;28;20044;-81
2021/11/12 16:38:32;;;;;;;31.67;15.13;;;11.80;60.70;;;;;;5033738;28;20049;-81
2021/11/12 16:41:14;;;;;;;19.43;14.90;;;11.70;60.70;;;;;;5045854;28;20110;-81
2021/11/12 16:46:42;;;;;;;25.37;13.97;;;11.60;61.10;;;;;;5053473;28;20086;-81
2021/11/12 16:55:13;;;;;;;30.90;18.70;;;11.30;61.30;;;;;;5056985;28;20024;-81
2021/11/12 16:58:11;;;;;;;26.80;16.93;;;11.30;61.40;;;;;;5042637;28;20472;-81
2021/11/12 17:00:18;;;;;;;26.37;17.37;;;11.20;61.50;;;;;;5025645;28;20091;-82
2021/11/12 17:05:44;;;;;;;29.43;17.87;;;11.20;61.70;;;;;;5021978;28;20058;-81
2021/11/12 17:46:22;;;;;;;25.00;19.10;;;10.40;63.50;;;;;;5054492;28;20035;-81
2021/11/12 18:02:41;;;;;;;27.80;20.27;;;10.10;64.50;;;;;;5051438;28;20067;-80
2021/11/12 18:05:51;;;;;;;28.10;18.87;;;10.10;64.60;;;;;;5045079;28;20025;-80
2021/11/12 21:45:07;;;;;;;43.10;17.20;;;8.40;70.30;;;;;;5026637;28;20051;-80
2021/11/12 21:47:33;;;;;;;38.97;17.27;;;8.30;70.60;;;;;;5025156;28;20022;-81
2021/11/12 21:49:59;;;;;;;47.40;20.30;;;8.30;70.80;;;;;;5024717;28;20284;-80
2021/11/12 21:52:25;;;;;;;39.83;18.00;;;8.40;71.00;;;;;;5011040;28;20485;-82
2021/11/12 21:54:51;;;;;;;39.40;16.67;;;8.40;71.00;;;;;;5027317;28;20025;-81
2021/11/12 21:57:17;;;;;;;50.10;17.87;;;8.50;71.10;;;;;;5010283;28;20030;-81
2021/11/12 21:59:42;;;;;;;66.20;15.77;;;8.40;70.70;;;;;;5004697;28;20013;-81
2021/11/12 22:02:09;;;;;;;36.30;17.10;;;8.50;70.80;;;;;;5029954;28;20484;-80
2021/11/12 22:04:34;;;;;;;57.97;16.80;;;8.40;70.80;;;;;;5026822;28;20029;-81
2021/11/12 22:07:00;;;;;;;31.63;16.73;;;8.40;70.70;;;;;;5016170;28;20032;-81
2021/11/12 22:09:26;;;;;;;43.23;16.37;;;8.40;71.00;;;;;;5031188;28;20056;-81
2021/11/12 22:11:52;;;;;;;40.50;16.73;;;8.40;70.90;;;;;;5028858;28;20716;-81
2021/11/12 22:14:18;;;;;;;64.20;20.40;;;8.40;71.00;;;;;;5004224;28;20087;-82
2021/11/12 22:16:44;;;;;;;57.17;17.30;;;8.30;71.00;;;;;;5018589;28;20033;-80
2021/11/12 22:19:09;;;;;;;48.53;15.20;;;8.30;71.20;;;;;;5034446;28;20025;-81
2021/11/12 22:21:35;;;;;;;52.93;19.27;;;8.30;71.30;;;;;;5031719;28;20032;-81
2021/11/12 22:24:02;;;;;;;47.97;21.77;;;8.30;71.20;;;;;;5030073;28;20037;-81
2021/11/12 22:26:28;;;;;;;35.60;19.77;;;8.20;71.50;;;;;;5022695;28;20029;-81
2021/11/12 22:28:54;;;;;;;60.23;17.47;;;8.30;71.70;;;;;;5034499;28;20037;-81
2021/11/12 22:31:21;;;;;;;37.37;16.63;;;8.30;71.50;;;;;;5052121;28;20041;-81
2021/11/12 22:33:47;;;;;;;30.30;17.53;;;8.30;71.30;;;;;;5050546;28;20031;-81
2021/11/12 22:36:13;;;;;;;32.63;19.13;;;8.30;71.50;;;;;;5047851;28;20029;-81
2021/11/12 22:38:40;;;;;;;48.47;16.27;;;8.30;71.60;;;;;;5041920;28;20024;-81
2021/11/12 22:41:06;;;;;;;47.53;16.93;;;8.30;71.50;;;;;;5075166;28;20021;-81
2021/11/12 22:43:35;;;;;;;37.50;16.07;;;8.30;71.40;;;;;;5049649;28;20116;-81
2021/11/12 22:46:02;;;;;;;33.63;18.50;;;8.20;71.40;;;;;;5054965;28;20096;-81
2021/11/12 22:48:28;;;;;;;32.93;16.80;;;8.30;71.40;;;;;;5051775;28;20040;-81
2021/11/12 22:50:53;;;;;;;32.73;16.83;;;8.30;71.30;;;;;;5024614;28;20021;-81
2021/11/12 22:53:20;;;;;;;29.07;15.47;;;8.20;71.50;;;;;;5045995;28;20028;-81
2021/11/12 22:55:45;;;;;;;47.40;15.63;;;8.30;71.60;;;;;;5034874;28;20025;-81